Time;durP1;ratioP1;P1;durP2;ratioP2;P2;SDS_P1;SDS_P2;PMS_P1;PMS_P2;Temp;Humidity;BMP_temperature;BMP_pressure;BME280_temperature;BME280_humidity;BME280_pressure;Samples;Min_cycle;Max_cycle;Signal;HPM_P1;HPM_P2
2023/05/23 07:01:16;;;;;;;0.90;0.90;;;15.00;99.90;17.80;102091.00;;;;6187369;23;20180;-71
2023/05/23 07:03:44;;;;;;;0.83;0.33;;;15.10;99.90;18.40;102087.00;;;;6161307;23;20190;-72
2023/05/23 07:06:11;;;;;;;0.87;0.87;;;15.40;99.90;17.50;102042.00;;;;6187669;23;20234;-73
2023/05/23 07:08:40;;;;;;;5.70;1.17;;;15.50;99.90;17.80;102083.00;;;;6160918;23;20154;-73
2023/05/23 07:11:06;;;;;;;0.40;0.40;;;15.50;99.90;18.40;102089.00;;;;6161129;23;20218;-71
2023/05/23 07:13:35;;;;;;;5.20;1.80;;;15.50;99.90;18.30;102103.00;;;;6136051;23;20185;-74
2023/05/23 07:16:01;;;;;;;1.27;1.17;;;15.50;99.90;16.90;102101.00;;;;6162082;23;20236;-73
2023/05/23 07:18:48;;;;;;;0.77;0.77;;;15.00;99.90;16.30;102024.00;;;;6160875;23;20152;-74
2023/05/23 07:21:17;;;;;;;1.53;1.43;;;14.60;99.90;16.30;102090.00;;;;6161271;23;20226;-73
2023/05/23 07:23:43;;;;;;;1.87;1.30;;;14.30;99.90;16.00;102100.00;;;;6135718;23;20184;-73
2023/05/23 07:26:09;;;;;;;1.50;1.50;;;14.10;99.90;16.70;102102.00;;;;6136373;23;20155;-73
2023/05/23 07:28:36;;;;;;;0.93;0.73;;;14.10;99.90;17.00;102102.00;;;;6135987;23;20316;-73
2023/05/23 07:31:02;;;;;;;0.33;0.33;;;14.20;99.90;17.20;102113.00;;;;6136768;23;20159;-73
2023/05/23 07:33:28;;;;;;;2.40;2.20;;;14.40;99.90;16.90;102113.00;;;;6161043;23;20286;-73
2023/05/23 07:35:54;;;;;;;2.07;1.30;;;14.30;99.90;16.80;102107.00;;;;6161084;23;20517;-73
2023/05/23 07:38:20;;;;;;;0.53;0.53;;;14.40;99.90;17.10;102111.00;;;;6160413;23;20146;-73
2023/05/23 07:40:46;;;;;;;1.57;0.83;;;14.40;99.90;17.00;102120.00;;;;6187370;23;20144;-72
2023/05/23 07:43:12;;;;;;;1.23;1.13;;;14.50;99.90;17.20;102114.00;;;;6160890;23;20178;-73
2023/05/23 07:45:38;;;;;;;1.50;1.40;;;14.70;99.90;16.80;102079.00;;;;6186901;23;20560;-73
2023/05/23 07:48:04;;;;;;;3.77;2.33;;;14.50;99.90;17.30;102118.00;;;;6136412;23;20571;-73
2023/05/23 07:50:30;;;;;;;1.33;1.13;;;14.40;99.90;16.90;102111.00;;;;6187093;23;20593;-73
2023/05/23 07:52:56;;;;;;;1.67;1.57;;;14.40;99.90;17.10;102112.00;;;;6160714;23;20233;-73
2023/05/23 07:55:23;;;;;;;0.80;0.80;;;14.40;99.90;16.30;102116.00;;;;6160790;23;20510;-73
2023/05/23 07:57:49;;;;;;;2.03;1.80;;;14.20;99.90;16.80;102115.00;;;;6161214;23;20143;-73
2023/05/23 08:00:16;;;;;;;1.60;1.40;;;14.30;99.90;17.30;102094.00;;;;6142834;23;20170;-73
2023/05/23 08:02:42;;;;;;;1.30;0.67;;;14.40;99.90;16.80;102113.00;;;;6106737;23;20228;-74
2023/05/23 08:05:08;;;;;;;5.33;1.90;;;14.40;99.90;16.90;102119.00;;;;6130593;23;20569;-73
2023/05/23 08:07:34;;;;;;;1.10;1.00;;;14.50;99.90;16.30;102105.00;;;;6130766;23;20458;-73
2023/05/23 08:10:00;;;;;;;0.70;0.70;;;14.20;99.90;16.10;102112.00;;;;6130895;23;20147;-73
2023/05/23 08:13:22;;;;;;;1.67;1.57;;;14.20;99.90;16.50;102065.00;;;;6106532;23;20158;-73
2023/05/23 08:16:09;;;;;;;0.20;0.20;;;14.30;99.90;17.00;102126.00;;;;6106282;23;20218;-73
2023/05/23 08:18:35;;;;;;;7.17;1.23;;;14.20;99.90;16.50;102060.00;;;;6106515;23;20160;-73
2023/05/23 08:21:01;;;;;;;9.70;4.90;;;14.30;99.90;16.70;102125.00;;;;6130819;23;20151;-73
2023/05/23 08:23:27;;;;;;;2.37;0.80;;;14.40;99.90;17.00;102130.00;;;;6156561;23;20163;-73
2023/05/23 08:25:56;;;;;;;2.20;0.90;;;14.40;99.90;16.70;102121.00;;;;6157102;23;20140;-72
2023/05/23 08:28:22;;;;;;;3.83;1.50;;;14.20;99.90;17.60;102131.00;;;;6106587;23;20172;-73
2023/05/23 08:30:48;;;;;;;0.40;0.40;;;14.50;99.90;17.80;102135.00;;;;6130660;23;20152;-73
2023/05/23 08:33:23;;;;;;;3.17;0.93;;;14.70;99.90;17.60;102133.00;;;;6106579;23;20585;-73
2023/05/23 08:35:51;;;;;;;1.27;0.90;;;14.80;99.90;17.00;102120.00;;;;6130293;23;20148;-73
2023/05/23 08:38:20;;;;;;;0.50;0.50;;;14.80;99.90;17.60;102131.00;;;;6156583;23;20209;-73
2023/05/23 08:40:51;;;;;;;0.10;0.10;;;14.80;99.90;17.70;102140.00;;;;6106359;23;20207;-72
2023/05/23 08:43:18;;;;;;;0.83;0.60;;;14.80;99.90;17.30;102136.00;;;;6155293;23;20844;-74
2023/05/23 08:45:45;;;;;;;1.17;0.47;;;14.90;99.90;17.40;102143.00;;;;6130219;23;20481;-74
2023/05/23 08:48:14;;;;;;;0.10;0.10;;;14.90;99.90;17.00;102116.00;;;;6106437;23;20157;-73
2023/05/23 08:50:46;;;;;;;0.40;0.40;;;14.80;99.90;18.80;102153.00;;;;6130713;23;20588;-73
2023/05/23 08:53:19;;;;;;;0.33;0.33;;;15.30;99.90;17.40;102136.00;;;;6156990;23;20211;-73
2023/05/23 08:55:50;;;;;;;0.57;0.57;;;15.40;99.90;17.50;102138.00;;;;6131354;23;20145;-73
2023/05/23 08:58:21;;;;;;;0.10;0.10;;;15.20;99.90;18.40;102151.00;;;;6130960;23;20170;-73
2023/05/23 09:01:13;;;;;;;0.90;0.77;;;15.30;99.90;18.00;102138.00;;;;6125566;23;20618;-73
2023/05/23 09:03:43;;;;;;;0.20;0.20;;;15.30;99.90;18.30;102138.00;;;;6140577;23;20201;-72
2023/05/23 09:06:10;;;;;;;0.20;0.20;;;15.50;99.90;17.80;102135.00;;;;6131147;23;20703;-73
2023/05/23 09:08:36;;;;;;;0.63;0.63;;;15.40;99.90;17.40;102131.00;;;;6130572;23;20269;-73
2023/05/23 09:11:04;;;;;;;0.93;0.77;;;15.30;99.90;17.40;102130.00;;;;6154692;23;20157;-73
2023/05/23 09:13:40;;;;;;;2.27;1.43;;;15.30;99.90;17.80;102145.00;;;;6130339;23;20169;-73
2023/05/23 09:16:11;;;;;;;0.13;0.13;;;15.50;99.90;18.20;102151.00;;;;6156030;23;20158;-73
2023/05/23 09:18:43;;;;;;;1.13;1.03;;;15.80;99.90;19.00;102111.00;;;;6130172;23;20222;-72
2023/05/23 09:21:13;;;;;;;1.10;0.83;;;16.20;99.90;19.40;102157.00;;;;6130466;23;20157;-70
2023/05/23 09:24:09;;;;;;;1.53;1.43;;;16.50;99.90;19.40;102181.00;;;;6130269;23;20202;-73
2023/05/23 09:26:55;;;;;;;1.30;1.00;;;16.50;99.90;17.90;102172.00;;;;6155888;23;20182;-73
2023/05/23 09:29:29;;;;;;;0.10;0.10;;;16.10;99.90;18.50;102145.00;;;;6129933;23;20506;-73
2023/05/23 09:32:20;;;;;;;0.43;0.43;;;16.00;99.90;19.00;102179.00;;;;6130274;23;20154;-73
2023/05/23 09:34:58;;;;;;;1.57;1.37;;;16.40;99.90;19.30;102147.00;;;;6130283;23;20159;-73
2023/05/23 09:37:46;;;;;;;1.53;0.67;;;16.70;99.90;19.30;102164.00;;;;6154758;23;20152;-73
2023/05/23 09:40:14;;;;;;;0.40;0.40;;;16.80;99.90;20.10;102192.00;;;;6130452;23;20487;-73
2023/05/23 09:42:47;;;;;;;0.73;0.63;;;16.90;99.90;19.40;102240.00;;;;6154366;23;20171;-73
2023/05/23 09:45:15;;;;;;;0.50;0.50;;;17.10;99.90;19.70;102231.00;;;;6130453;23;20215;-73
2023/05/23 09:48:16;;;;;;;1.23;0.83;;;17.10;99.90;20.10;102231.00;;;;6153932;23;20139;-73
2023/05/23 09:50:46;;;;;;;5.37;1.67;;;17.50;99.90;19.80;102240.00;;;;6130597;23;20162;-73
2023/05/23 09:53:12;;;;;;;0.27;0.27;;;17.20;99.90;20.60;102235.00;;;;6130478;23;20165;-73
2023/05/23 09:55:39;;;;;;;1.70;1.53;;;17.20;99.90;20.90;102242.00;;;;6154730;23;20599;-73
2023/05/23 09:58:06;;;;;;;0.40;0.40;;;17.50;99.90;20.80;102195.00;;;;6154756;23;20240;-73
2023/05/23 10:00:33;;;;;;;0.33;0.30;;;17.70;99.90;19.80;102212.00;;;;6129780;23;20173;-73
2023/05/23 10:03:12;;;;;;;0.30;0.30;;;17.60;99.90;20.00;102212.00;;;;6154291;23;20169;-74
2023/05/23 10:06:09;;;;;;;1.00;0.43;;;17.40;99.90;20.30;102262.00;;;;6129970;23;20586;-74
2023/05/23 10:08:43;;;;;;;2.23;0.30;;;17.70;99.90;20.30;102268.00;;;;6129265;23;20162;-74
2023/05/23 10:11:12;;;;;;;0.83;0.83;;;17.70;99.90;20.10;102271.00;;;;6130168;23;20162;-74
2023/05/23 10:13:43;;;;;;;0.30;0.30;;;17.60;99.90;21.80;102255.00;;;;6154544;23;20482;-74
2023/05/23 10:16:51;;;;;;;0.10;0.10;;;18.10;99.90;21.10;102271.00;;;;6154040;23;20158;-74
2023/05/23 10:19:26;;;;;;;1.80;1.63;;;18.10;99.90;21.80;102272.00;;;;6154794;23;20198;-74
2023/05/23 10:33:21;;;;;;;1.13;0.73;;;19.20;99.90;21.10;102241.00;;;;5070101;28;21130;-73
2023/05/23 10:35:59;;;;;;;2.47;2.28;;;19.10;99.90;21.70;102240.00;;;;5032098;28;20203;-73
2023/05/23 10:39:15;;;;;;;0.08;0.08;;;19.00;99.90;22.50;102239.00;;;;5061678;28;20218;-72
2023/05/23 10:41:49;;;;;;;1.05;0.60;;;19.20;99.90;22.00;102252.00;;;;5060661;28;20190;-73
2023/05/23 10:44:29;;;;;;;0.20;0.20;;;19.00;99.90;22.10;102238.00;;;;5049087;28;20189;-73
2023/05/23 10:47:27;;;;;;;0.10;0.10;;;19.20;99.90;22.30;102212.00;;;;5031056;28;20186;-72
2023/05/23 10:49:54;;;;;;;1.75;0.90;;;19.10;99.90;23.00;102186.00;;;;5048529;28;20182;-73
2023/05/23 10:52:26;;;;;;;0.20;0.20;;;19.80;99.90;23.40;102208.00;;;;5049040;28;20213;-72
2023/05/23 10:54:55;;;;;;;1.58;1.48;;;20.10;99.90;22.00;102245.00;;;;5038676;28;20182;-72
2023/05/23 10:57:30;;;;;;;5.22;1.98;;;20.00;99.90;22.90;102233.00;;;;5077969;28;20206;-73
2023/05/23 10:59:56;;;;;;;1.23;0.47;;;19.70;99.90;22.50;102232.00;;;;5028548;28;20187;-73
2023/05/23 11:02:30;;;;;;;3.67;1.85;;;19.60;99.90;22.90;102210.00;;;;5076663;28;20202;-73
2023/05/23 11:05:21;;;;;;;5.82;1.63;;;20.10;99.90;21.90;102218.00;;;;5048705;28;20205;-73
2023/05/23 11:08:12;;;;;;;0.10;0.10;;;19.90;99.90;24.00;102191.00;;;;5048641;28;20182;-73
2023/05/23 11:10:59;;;;;;;1.48;1.38;;;20.50;99.90;23.40;102174.00;;;;5048752;28;20183;-73
2023/05/23 11:13:25;;;;;;;0.55;0.55;;;20.60;99.90;21.90;102240.00;;;;5048167;28;20182;-73
2023/05/23 11:15:51;;;;;;;0.40;0.25;;;19.60;99.90;22.30;102251.00;;;;5028454;28;20183;-72
2023/05/23 11:18:38;;;;;;;1.38;1.20;;;19.30;99.90;21.30;102268.00;;;;5048487;28;20187;-72
2023/05/23 11:21:11;;;;;;;8.10;1.00;;;19.00;99.90;21.40;102274.00;;;;5024552;28;20190;-73
2023/05/23 11:23:41;;;;;;;2.80;0.40;;;18.50;99.90;22.40;102258.00;;;;5078825;28;20186;-73
2023/05/23 11:26:30;;;;;;;5.00;2.05;;;18.80;99.90;22.60;102256.00;;;;5048564;28;20261;-73
2023/05/23 11:28:58;;;;;;;1.05;0.35;;;19.60;99.90;22.70;102261.00;;;;5044365;28;20252;-72
2023/05/23 11:31:27;;;;;;;0.70;0.70;;;19.80;99.90;23.50;102241.00;;;;5031380;28;20224;-73
2023/05/23 11:33:54;;;;;;;0.52;0.30;;;19.80;99.90;24.20;102228.00;;;;5028616;28;20272;-73
2023/05/23 11:36:23;;;;;;;3.85;1.27;;;20.70;99.90;22.10;102263.00;;;;5048479;28;20187;-72
2023/05/23 11:38:52;;;;;;;0.82;0.38;;;20.30;99.90;21.20;102279.00;;;;5048038;28;20186;-72
2023/05/23 11:41:18;;;;;;;0.50;0.50;;;19.00;99.90;22.60;102270.00;;;;5031503;28;20528;-73
2023/05/23 11:43:53;;;;;;;0.73;0.73;;;19.40;99.90;21.20;102307.00;;;;5054224;28;20188;-73
2023/05/23 11:46:19;;;;;;;1.67;1.58;;;19.00;99.90;21.70;102283.00;;;;5014586;28;20190;-73
2023/05/23 11:48:48;;;;;;;10.32;0.50;;;19.40;99.90;21.70;102296.00;;;;5065162;28;20194;-72
2023/05/23 11:51:14;;;;;;;0.15;0.15;;;19.20;99.90;21.00;102315.00;;;;5030992;28;20301;-72
2023/05/23 11:53:41;;;;;;;2.17;0.75;;;18.60;99.90;22.00;102290.00;;;;5032556;28;20194;-73
2023/05/23 11:56:07;;;;;;;0.20;0.20;;;18.80;99.90;23.00;102274.00;;;;5017941;28;20183;-73
2023/05/23 11:58:38;;;;;;;0.90;0.63;;;19.40;99.90;22.40;102277.00;;;;5034293;28;20194;-73
2023/05/23 12:02:08;;;;;;;14.25;4.57;;;19.30;99.90;22.50;102284.00;;;;5034270;28;20721;-72
2023/05/23 12:04:38;;;;;;;1.20;0.77;;;19.30;99.90;22.50;102233.00;;;;5034302;28;20217;-73
2023/05/23 12:07:06;;;;;;;13.35;2.35;;;19.40;99.90;21.20;102318.00;;;;5034119;28;20194;-73
2023/05/23 12:09:33;;;;;;;4.43;1.90;;;19.20;99.90;21.60;102294.00;;;;5034498;28;20198;-73
2023/05/23 12:12:00;;;;;;;3.28;0.50;;;18.80;99.90;22.00;102299.00;;;;5032238;28;20222;-73
2023/05/23 12:14:28;;;;;;;3.13;1.10;;;19.00;99.90;21.80;102304.00;;;;5034188;28;20185;-73
2023/05/23 12:16:54;;;;;;;0.25;0.25;;;18.90;99.90;21.70;102300.00;;;;5006780;28;20187;-72
2023/05/23 12:19:20;;;;;;;2.95;0.63;;;18.70;99.90;22.20;102282.00;;;;5034040;28;20644;-73
2023/05/23 12:21:50;;;;;;;0.50;0.40;;;18.80;99.90;21.20;102333.00;;;;5035212;28;20280;-73
2023/05/23 12:24:23;;;;;;;0.10;0.10;;;18.60;99.90;21.90;102309.00;;;;5033956;28;20191;-73
2023/05/23 12:26:58;;;;;;;1.83;0.40;;;18.60;99.90;22.20;102308.00;;;;5017076;28;20190;-73
2023/05/23 12:29:32;;;;;;;0.55;0.52;;;19.10;99.90;22.00;102317.00;;;;5023015;28;20523;-73
2023/05/23 12:32:00;;;;;;;1.10;0.83;;;18.90;99.90;21.10;102345.00;;;;5013559;28;20625;-73
2023/05/23 12:34:26;;;;;;;4.77;1.80;;;18.70;99.90;21.40;102314.00;;;;5014095;28;20191;-72
2023/05/23 12:37:05;;;;;;;0.27;0.27;;;18.70;99.90;21.40;102329.00;;;;5048313;28;20190;-73
2023/05/23 12:39:33;;;;;;;0.10;0.10;;;18.40;99.90;22.00;102303.00;;;;5022947;28;20579;-73
2023/05/23 12:42:09;;;;;;;17.73;1.10;;;18.60;99.90;22.40;102295.00;;;;5033015;28;20197;-73
2023/05/23 12:44:35;;;;;;;5.05;0.73;;;19.10;99.90;21.30;102337.00;;;;5035053;28;20232;-73
2023/05/23 12:47:04;;;;;;;0.20;0.20;;;18.90;99.90;20.60;102343.00;;;;5017141;28;20194;-73
2023/05/23 12:49:30;;;;;;;2.80;0.60;;;18.10;99.90;21.00;102326.00;;;;5017201;28;20660;-73
2023/05/23 12:51:56;;;;;;;1.08;0.57;;;18.20;99.90;22.10;102302.00;;;;5033172;28;20210;-73
2023/05/23 12:54:22;;;;;;;0.10;0.10;;;18.60;99.90;22.50;102313.00;;;;5034160;28;20240;-73
2023/05/23 12:56:48;;;;;;;0.27;0.27;;;19.00;99.90;21.40;102322.00;;;;5030179;28;20600;-73
2023/05/23 12:59:14;;;;;;;4.00;1.50;;;18.70;99.90;21.30;102333.00;;;;5016776;28;20202;-73
2023/05/23 13:01:40;;;;;;;0.93;0.50;;;18.60;99.90;21.80;102314.00;;;;5033111;28;20199;-72
2023/05/23 13:04:09;;;;;;;0.17;0.17;;;18.50;99.90;23.10;102303.00;;;;5033775;28;20540;-72
2023/05/23 13:06:37;;;;;;;0.20;0.20;;;19.10;99.90;22.50;102311.00;;;;5029093;28;20219;-72
2023/05/23 13:09:03;;;;;;;0.40;0.40;;;19.20;99.90;23.10;102261.00;;;;5033262;28;20210;-73
2023/05/23 13:11:30;;;;;;;4.75;1.92;;;19.60;99.90;21.40;102315.00;;;;5032574;28;20244;-72
2023/05/23 13:13:56;;;;;;;2.75;1.17;;;19.20;99.90;20.10;102341.00;;;;5016757;28;20187;-72
2023/05/23 13:16:51;;;;;;;2.87;0.80;;;18.40;99.90;20.90;102341.00;;;;5033351;28;20186;-72
2023/05/23 13:19:25;;;;;;;4.30;1.70;;;18.10;99.90;21.00;102298.00;;;;5031199;28;20194;-72
2023/05/23 13:21:51;;;;;;;1.40;0.77;;;18.10;99.90;20.60;102338.00;;;;5015668;28;20887;-72
2023/05/23 13:24:17;;;;;;;1.30;1.30;;;18.00;99.90;21.70;102323.00;;;;5032664;28;20188;-72
2023/05/23 13:26:43;;;;;;;0.40;0.40;;;18.20;99.90;21.50;102333.00;;;;5032707;28;20268;-72
2023/05/23 13:29:16;;;;;;;0.83;0.40;;;18.40;99.90;20.80;102292.00;;;;5032620;28;20213;-72
2023/05/23 13:32:17;;;;;;;2.90;1.10;;;18.30;99.90;21.00;102332.00;;;;5032560;28;20683;-72
2023/05/23 13:34:43;;;;;;;0.57;0.43;;;18.10;99.90;21.40;102326.00;;;;5056362;28;20212;-72
2023/05/23 13:37:09;;;;;;;0.10;0.10;;;18.40;99.90;21.80;102284.00;;;;5016258;28;20205;-72
2023/05/23 13:39:35;;;;;;;1.17;1.13;;;18.60;99.90;21.70;102303.00;;;;5031235;28;20205;-72
2023/05/23 13:42:01;;;;;;;1.97;1.10;;;18.70;99.90;21.60;102295.00;;;;5019910;28;20181;-72
2023/05/23 13:44:27;;;;;;;3.43;1.50;;;18.80;99.90;22.10;102304.00;;;;5033945;28;20197;-72
2023/05/23 13:47:10;;;;;;;0.70;0.70;;;18.90;99.90;21.90;102294.00;;;;5016019;28;20205;-72
2023/05/23 13:49:36;;;;;;;0.27;0.20;;;18.80;99.90;21.40;102315.00;;;;5032548;28;20204;-72
2023/05/23 13:52:02;;;;;;;0.40;0.40;;;18.70;99.90;22.10;102302.00;;;;5033302;28;20212;-72
2023/05/23 13:54:31;;;;;;;0.60;0.60;;;18.80;99.90;22.00;102286.00;;;;5033108;28;20600;-72
2023/05/23 13:56:59;;;;;;;0.57;0.57;;;18.80;99.90;22.60;102284.00;;;;5015599;28;20707;-73
2023/05/23 13:59:31;;;;;;;2.93;0.40;;;19.10;99.90;21.30;102256.00;;;;5029350;28;20202;-72
2023/05/23 14:01:57;;;;;;;4.10;0.90;;;18.90;99.90;20.80;102332.00;;;;5031848;28;20678;-72
2023/05/23 14:04:23;;;;;;;2.15;0.43;;;18.40;99.90;20.90;102260.00;;;;5031797;28;20200;-72
2023/05/23 14:06:50;;;;;;;1.13;1.13;;;18.30;99.90;20.70;102307.00;;;;5015250;28;20224;-72
2023/05/23 14:09:16;;;;;;;0.20;0.20;;;18.20;99.90;21.20;102312.00;;;;5032931;28;20343;-72
2023/05/23 14:11:43;;;;;;;1.88;0.82;;;18.20;99.90;21.60;102302.00;;;;5031696;28;20276;-72
2023/05/23 14:14:09;;;;;;;0.20;0.20;;;18.40;99.90;20.50;102303.00;;;;5011739;28;20618;-72
2023/05/23 14:16:44;;;;;;;0.97;0.97;;;18.10;99.90;21.00;102314.00;;;;5061734;28;20189;-72
2023/05/23 14:19:10;;;;;;;2.13;0.83;;;18.10;99.90;21.00;102320.00;;;;5031854;28;20201;-72
2023/05/23 14:21:37;;;;;;;8.67;2.13;;;18.00;99.90;20.50;102316.00;;;;5015434;28;20196;-73
2023/05/23 14:24:03;;;;;;;0.33;0.33;;;18.00;99.90;21.40;102313.00;;;;5031472;28;20186;-72
2023/05/23 14:26:30;;;;;;;0.60;0.60;;;18.00;99.90;21.30;102311.00;;;;5012879;28;20193;-73
2023/05/23 14:28:58;;;;;;;0.63;0.63;;;18.10;99.90;20.50;102275.00;;;;5033116;28;20184;-73
2023/05/23 14:31:47;;;;;;;0.77;0.50;;;17.90;99.90;20.40;102327.00;;;;5031680;28;20220;-72
2023/05/23 14:34:13;;;;;;;1.03;0.73;;;17.90;99.90;20.50;102306.00;;;;5006101;28;20200;-72
2023/05/23 14:37:02;;;;;;;0.37;0.37;;;17.60;99.90;21.40;102299.00;;;;5021872;28;20195;-72
2023/05/23 14:39:30;;;;;;;0.17;0.17;;;17.80;99.90;20.20;102332.00;;;;5022025;28;20188;-72
2023/05/23 14:41:59;;;;;;;0.77;0.77;;;17.70;99.90;21.20;102309.00;;;;5031768;28;20197;-72
2023/05/23 14:44:26;;;;;;;1.63;0.67;;;17.90;99.90;21.10;102282.00;;;;5015397;28;20195;-72
2023/05/23 14:46:52;;;;;;;0.20;0.20;;;18.00;99.90;21.60;102291.00;;;;5060517;28;20276;-72
2023/05/23 14:49:26;;;;;;;0.30;0.30;;;18.10;99.90;20.70;102308.00;;;;5015085;28;20272;-72
2023/05/23 14:51:52;;;;;;;0.53;0.53;;;17.90;99.90;20.70;102332.00;;;;5014642;28;20300;-72
2023/05/23 14:54:18;;;;;;;0.10;0.10;;;17.80;99.90;21.40;102289.00;;;;5056562;28;20575;-72
2023/05/23 14:56:53;;;;;;;2.17;0.73;;;17.90;99.90;21.70;102260.00;;;;5031335;28;20647;-72
2023/05/23 14:59:20;;;;;;;0.20;0.20;;;18.10;99.90;21.50;102288.00;;;;5015469;28;20189;-72
2023/05/23 15:01:46;;;;;;;2.83;1.97;;;18.20;99.90;20.10;102327.00;;;;5031161;28;20197;-72
2023/05/23 15:04:15;;;;;;;3.33;1.13;;;17.90;99.90;19.90;102285.00;;;;5014996;28;20247;-72
2023/05/23 15:07:04;;;;;;;2.93;1.13;;;17.50;99.90;20.80;102313.00;;;;5015254;28;20551;-72
2023/05/23 15:09:30;;;;;;;0.30;0.30;;;17.50;99.90;20.90;102312.00;;;;5011458;28;20242;-72
2023/05/23 15:11:58;;;;;;;1.33;0.97;;;17.60;99.90;21.30;102289.00;;;;5023441;28;20200;-72
2023/05/23 15:14:30;;;;;;;0.73;0.60;;;17.80;99.90;21.60;102249.00;;;;5030592;28;20198;-72
2023/05/23 15:17:06;;;;;;;0.70;0.70;;;18.00;99.90;20.50;102319.00;;;;5015153;28;20597;-72
2023/05/23 15:19:37;;;;;;;10.97;1.03;;;17.90;99.90;19.80;102345.00;;;;5030132;28;20208;-72
2023/05/23 15:22:07;;;;;;;0.20;0.20;;;17.40;99.90;19.80;102346.00;;;;5018740;28;20188;-72
2023/05/23 15:24:33;;;;;;;2.13;0.30;;;17.10;99.90;20.50;102331.00;;;;5018463;28;20189;-72
2023/05/23 15:26:59;;;;;;;1.13;0.47;;;17.30;99.90;19.70;102354.00;;;;5019925;28;20201;-72
2023/05/23 15:29:25;;;;;;;0.40;0.40;;;17.30;99.90;19.70;102339.00;;;;5025126;28;20195;-72
2023/05/23 15:32:19;;;;;;;0.93;0.80;;;16.90;99.90;19.90;102304.00;;;;5036107;28;20249;-72
2023/05/23 15:34:45;;;;;;;0.80;0.80;;;16.90;99.90;19.80;102343.00;;;;5034414;28;20193;-72
2023/05/23 15:37:11;;;;;;;0.40;0.37;;;17.00;99.90;19.70;102362.00;;;;5035888;28;20192;-72
2023/05/23 15:39:45;;;;;;;0.57;0.57;;;17.10;99.90;18.90;102381.00;;;;5034672;28;20266;-71
2023/05/23 15:42:54;;;;;;;0.10;0.10;;;16.70;99.90;20.00;102353.00;;;;5015590;28;20322;-72
2023/05/23 15:45:45;;;;;;;0.93;0.93;;;16.70;99.90;20.70;102334.00;;;;5021143;28;20200;-72
2023/05/23 15:48:45;;;;;;;0.30;0.30;;;17.20;99.90;21.10;102304.00;;;;5066889;28;20318;-72
2023/05/23 15:51:31;;;;;;;1.20;0.60;;;17.30;99.90;20.40;102319.00;;;;5014612;28;20195;-72
2023/05/23 15:54:40;;;;;;;0.83;0.83;;;17.30;99.90;19.90;102345.00;;;;5064572;28;20232;-72
2023/05/23 15:57:06;;;;;;;4.00;1.73;;;17.30;99.90;20.30;102332.00;;;;5050542;28;20192;-72
2023/05/23 16:00:15;;;;;;;0.10;0.10;;;17.10;99.90;20.00;102338.00;;;;5021696;28;20205;-72
2023/05/23 16:03:21;;;;;;;0.87;0.70;;;17.00;99.90;19.10;102315.00;;;;5024601;28;20211;-72
2023/05/23 16:06:33;;;;;;;0.43;0.43;;;16.90;99.90;19.30;102353.00;;;;5032510;28;20201;-72
2023/05/23 16:16:34;;;;;;;0.27;0.27;;;16.90;99.90;19.20;102359.00;;;;5034227;28;20225;-72
2023/05/23 16:19:00;;;;;;;0.33;0.33;;;16.50;99.90;19.30;102353.00;;;;5028989;28;20210;-72
2023/05/23 16:22:13;;;;;;;0.20;0.20;;;16.30;99.90;19.70;102345.00;;;;5033880;28;20654;-71
2023/05/23 16:25:18;;;;;;;0.33;0.33;;;16.50;99.90;19.70;102342.00;;;;5030325;28;20190;-72
2023/05/23 16:27:44;;;;;;;0.27;0.23;;;16.40;99.90;19.60;102342.00;;;;5021887;28;20193;-72
2023/05/23 16:34:02;;;;;;;0.50;0.43;;;16.40;99.90;19.10;102338.00;;;;5029266;28;20717;-72
2023/05/23 16:36:31;;;;;;;0.10;0.10;;;16.40;99.90;19.70;102304.00;;;;5031286;28;20198;-72
2023/05/23 16:39:30;;;;;;;2.80;0.73;;;16.50;99.90;18.90;102361.00;;;;5033773;28;20185;-72
2023/05/23 16:45:34;;;;;;;1.00;0.43;;;16.40;99.90;18.90;102352.00;;;;5045045;28;20193;-72
2023/05/23 16:48:43;;;;;;;2.30;1.10;;;16.30;99.90;18.70;102340.00;;;;5023298;28;20206;-71
2023/05/23 16:54:37;;;;;;;1.50;0.60;;;16.30;99.90;19.00;102350.00;;;;5034250;28;20251;-72
2023/05/23 16:57:51;;;;;;;0.20;0.20;;;16.20;99.90;19.10;102330.00;;;;5032897;28;20231;-71
2023/05/23 17:00:57;;;;;;;0.50;0.50;;;16.00;99.90;19.20;102338.00;;;;5025820;28;20189;-71
2023/05/23 17:03:43;;;;;;;2.63;1.20;;;16.00;99.90;18.20;102364.00;;;;5032798;28;20211;-72
2023/05/23 17:06:30;;;;;;;4.30;0.93;;;15.90;99.90;17.70;102377.00;;;;5016927;28;20212;-72
2023/05/23 17:09:44;;;;;;;0.80;0.57;;;15.60;99.90;18.30;102364.00;;;;5033049;28;20217;-72
2023/05/23 17:12:51;;;;;;;0.83;0.40;;;15.50;99.90;17.90;102376.00;;;;5023938;28;20221;-71
2023/05/23 17:15:43;;;;;;;0.23;0.23;;;15.30;99.90;18.40;102388.00;;;;5046217;28;20192;-72
2023/05/23 17:21:35;;;;;;;0.37;0.30;;;15.40;99.90;18.40;102375.00;;;;5022602;28;20546;-72
2023/05/23 17:24:39;;;;;;;0.13;0.13;;;15.40;99.90;18.80;102363.00;;;;5032800;28;20181;-71
2023/05/23 17:27:12;;;;;;;0.50;0.50;;;15.60;99.90;18.10;102374.00;;;;5017705;28;20187;-71
2023/05/23 17:30:34;;;;;;;1.63;0.90;;;15.40;99.90;18.10;102383.00;;;;5016376;28;20192;-71
2023/05/23 17:33:00;;;;;;;4.70;0.53;;;15.40;99.90;18.50;102360.00;;;;5029393;28;20216;-72
2023/05/23 17:35:43;;;;;;;3.70;0.70;;;15.30;99.90;18.60;102353.00;;;;5032338;28;20195;-72
2023/05/23 17:38:27;;;;;;;0.20;0.20;;;15.40;99.90;19.10;102351.00;;;;5032227;28;20200;-72
2023/05/23 17:40:53;;;;;;;0.10;0.10;;;15.60;99.90;18.60;102354.00;;;;5015713;28;20274;-72
2023/05/23 17:43:45;;;;;;;2.57;0.87;;;15.50;99.90;18.30;102317.00;;;;5033467;28;20600;-71
2023/05/23 17:46:51;;;;;;;1.13;0.83;;;15.40;99.90;17.80;102376.00;;;;5032068;28;20580;-72
2023/05/23 17:49:56;;;;;;;0.60;0.60;;;15.30;99.90;17.60;102376.00;;;;5016748;28;20195;-73
2023/05/23 17:52:57;;;;;;;1.20;0.67;;;15.20;99.90;17.70;102378.00;;;;5015700;28;20207;-71
2023/05/23 17:55:31;;;;;;;0.30;0.30;;;15.10;99.90;17.90;102374.00;;;;5019257;28;20191;-72
2023/05/23 17:58:37;;;;;;;0.27;0.27;;;14.90;99.90;18.30;102375.00;;;;5026493;28;20191;-72
2023/05/23 18:01:10;;;;;;;0.57;0.57;;;15.00;99.90;18.20;102344.00;;;;5015336;28;20190;-72
2023/05/23 18:03:43;;;;;;;5.83;0.77;;;15.20;99.90;17.70;102334.00;;;;5025314;28;20321;-72
2023/05/23 18:06:27;;;;;;;0.13;0.13;;;15.10;99.90;17.90;102332.00;;;;5015652;28;20281;-72
2023/05/23 18:09:28;;;;;;;9.33;1.07;;;15.00;99.90;17.50;102336.00;;;;5012187;28;20195;-72
2023/05/23 18:12:12;;;;;;;0.20;0.20;;;15.00;99.90;17.70;102399.00;;;;5011778;28;20214;-72
2023/05/23 18:14:42;;;;;;;1.70;0.93;;;14.80;99.90;18.00;102392.00;;;;5015388;28;20179;-72
2023/05/23 18:17:11;;;;;;;1.17;1.03;;;14.80;99.90;17.50;102408.00;;;;5032038;28;20175;-71
2023/05/23 18:20:24;;;;;;;0.43;0.27;;;14.80;99.90;17.40;102395.00;;;;5031974;28;20651;-71
2023/05/23 18:23:16;;;;;;;0.30;0.30;;;14.70;99.90;17.40;102395.00;;;;5026408;28;20652;-71
2023/05/23 18:25:53;;;;;;;6.10;0.67;;;14.70;99.90;17.60;102390.00;;;;5032915;28;20188;-71
2023/05/23 18:28:21;;;;;;;0.60;0.60;;;14.60;99.90;17.60;102397.00;;;;5031997;28;20187;-71
2023/05/23 18:31:11;;;;;;;0.93;0.70;;;14.70;99.90;17.20;102405.00;;;;5031642;28;20186;-71
2023/05/23 18:33:45;;;;;;;5.30;1.80;;;14.60;99.90;17.70;102340.00;;;;5009363;28;20208;-72
2023/05/23 18:36:31;;;;;;;0.33;0.33;;;14.60;99.90;17.30;102399.00;;;;5029903;28;20633;-71
2023/05/23 18:38:57;;;;;;;2.57;0.23;;;14.50;99.90;16.90;102367.00;;;;5031434;28;20181;-71
2023/05/23 18:41:41;;;;;;;0.20;0.20;;;14.40;99.90;17.10;102403.00;;;;5031959;28;20185;-71
2023/05/23 18:44:11;;;;;;;1.57;1.10;;;14.40;99.90;17.50;102393.00;;;;5014804;28;20187;-71
2023/05/23 18:47:05;;;;;;;0.10;0.10;;;14.30;99.90;17.60;102388.00;;;;5031505;28;20188;-72
2023/05/23 18:49:38;;;;;;;0.20;0.20;;;14.50;99.90;16.90;102393.00;;;;5020912;28;20206;-72
2023/05/23 18:52:05;;;;;;;0.77;0.77;;;14.30;99.90;17.40;102400.00;;;;5025443;28;20204;-71
2023/05/23 18:54:31;;;;;;;0.30;0.30;;;14.20;99.90;16.90;102402.00;;;;5058825;28;20182;-71
2023/05/23 18:56:57;;;;;;;0.10;0.10;;;14.10;99.90;17.40;102383.00;;;;5035663;28;20248;-71